Time;durP1;ratioP1;P1;durP2;ratioP2;P2;SDS_P1;SDS_P2;PMS_P1;PMS_P2;Temp;Humidity;BMP_temperature;BMP_pressure;BME280_temperature;BME280_humidity;BME280_pressure;Samples;Min_cycle;Max_cycle;Signal;HPM_P1;HPM_P2
2022/06/24 00:01:53;;;;;;;;;;;;;;;16.66;87.94;98095.24;1677712;84;22102;-86
2022/06/24 00:04:25;;;;;;;;;;;;;;;16.49;88.15;98098.70;1671177;83;26152;-85
2022/06/24 00:06:51;;;;;;;;;;;;;;;16.61;88.82;98097.03;1670958;84;24435;-86
2022/06/24 00:09:30;;;;;;;;;;;;;;;16.79;89.27;98097.01;1668940;83;20338;-90
2022/06/24 00:12:03;;;;;;;;;;;;;;;16.87;89.37;98098.38;1674075;83;24865;-86
2022/06/24 00:14:29;;;;;;;;;;;;;;;16.81;89.38;98103.44;1676270;83;22223;-90
2022/06/24 00:16:56;;;;;;;;;;;;;;;16.59;89.34;98106.91;1673767;83;20929;-86
2022/06/24 00:19:25;;;;;;;;;;;;;;;16.43;89.55;98104.59;1673429;83;25141;-85
2022/06/24 00:22:04;;;;;;;;;;;;;;;16.33;89.92;98102.03;1671628;84;20521;-89
2022/06/24 00:24:40;;;;;;;;;;;;;;;16.17;90.29;98096.11;1664497;84;25498;-89
2022/06/24 00:27:16;;;;;;;;;;;;;;;16.11;90.74;98094.55;1671299;85;22053;-89
2022/06/24 00:29:42;;;;;;;;;;;;;;;16.29;91.41;98090.12;1665679;85;25951;-85
2022/06/24 00:32:10;;;;;;;;;;;;;;;16.35;91.77;98090.00;1663917;85;20327;-84
2022/06/24 00:34:38;;;;;;;;;;;;;;;16.36;92.08;98091.67;1672930;85;20256;-84
2022/06/24 00:37:25;;;;;;;;;;;;;;;16.43;92.32;98091.38;1670886;85;24761;-85
2022/06/24 00:39:53;;;;;;;;;;;;;;;16.45;92.49;98087.62;1666676;85;22267;-84
2022/06/24 00:42:20;;;;;;;;;;;;;;;16.60;92.59;98091.40;1670427;85;25945;-89
2022/06/24 00:44:51;;;;;;;;;;;;;;;16.70;92.66;98082.89;1673249;85;25340;-84
2022/06/24 00:47:18;;;;;;;;;;;;;;;16.67;92.61;98077.92;1667470;85;20221;-84
2022/06/24 00:49:45;;;;;;;;;;;;;;;16.64;92.58;98076.89;1664199;85;24827;-85
2022/06/24 00:52:14;;;;;;;;;;;;;;;16.58;92.47;98074.83;1669269;85;21993;-89
2022/06/24 00:54:42;;;;;;;;;;;;;;;16.51;92.46;98080.90;1664816;85;26093;-84
2022/06/24 00:57:08;;;;;;;;;;;;;;;16.51;92.61;98081.73;1664219;85;25125;-84
2022/06/24 00:59:35;;;;;;;;;;;;;;;16.55;92.70;98075.64;1663387;85;20221;-83
2022/06/24 01:02:02;;;;;;;;;;;;;;;16.46;92.66;98070.80;1667765;85;24726;-84
2022/06/24 01:04:30;;;;;;;;;;;;;;;16.19;92.47;98078.80;1673109;85;22038;-85
2022/06/24 01:06:57;;;;;;;;;;;;;;;15.96;92.58;98071.81;1668893;85;26716;-89
2022/06/24 01:09:24;;;;;;;;;;;;;;;15.74;92.74;98074.88;1664523;85;25309;-85
2022/06/24 01:11:56;;;;;;;;;;;;;;;15.69;93.16;98067.89;1674483;85;20602;-84
2022/06/24 01:14:22;;;;;;;;;;;;;;;15.78;93.69;98074.42;1671180;85;24996;-84
2022/06/24 01:16:48;;;;;;;;;;;;;;;15.90;94.15;98074.56;1667511;84;21950;-84
2022/06/24 01:19:14;;;;;;;;;;;;;;;15.98;94.45;98063.75;1668674;84;21834;-84
2022/06/24 01:21:45;;;;;;;;;;;;;;;15.98;94.73;98060.62;1667141;85;24152;-83
2022/06/24 01:24:16;;;;;;;;;;;;;;;15.95;94.93;98056.12;1668668;84;20728;-83
2022/06/24 01:26:43;;;;;;;;;;;;;;;15.88;95.14;98051.92;1666040;84;24760;-85
2022/06/24 01:29:09;;;;;;;;;;;;;;;15.96;95.48;98052.51;1669208;84;22010;-83
2022/06/24 01:31:38;;;;;;;;;;;;;;;16.08;95.72;98057.42;1664338;84;21187;-88
2022/06/24 01:34:05;;;;;;;;;;;;;;;16.13;95.78;98056.48;1665391;84;24632;-84
2022/06/24 01:36:31;;;;;;;;;;;;;;;16.14;95.83;98054.67;1667930;84;20468;-84
2022/06/24 01:38:58;;;;;;;;;;;;;;;16.03;95.88;98055.73;1667887;84;20767;-84
2022/06/24 01:41:25;;;;;;;;;;;;;;;15.83;95.89;98043.63;1674602;84;21945;-84
2022/06/24 01:43:51;;;;;;;;;;;;;;;15.65;96.02;98044.11;1667842;84;26061;-84
2022/06/24 01:46:17;;;;;;;;;;;;;;;15.53;96.25;98040.84;1670928;84;20256;-84
2022/06/24 01:48:43;;;;;;;;;;;;;;;15.53;96.61;98045.29;1666296;84;20297;-84
2022/06/24 01:51:11;;;;;;;;;;;;;;;15.64;97.06;98043.28;1668343;84;20973;-84
2022/06/24 01:53:37;;;;;;;;;;;;;;;15.62;97.30;98043.07;1668283;84;22086;-84
2022/06/24 01:56:03;;;;;;;;;;;;;;;15.56;97.57;98044.49;1668238;84;21147;-83
2022/06/24 01:58:29;;;;;;;;;;;;;;;15.53;97.90;98042.16;1668312;84;24396;-84
2022/06/24 02:01:00;;;;;;;;;;;;;;;15.50;98.27;98044.56;1670560;84;20807;-84
2022/06/24 02:03:37;;;;;;;;;;;;;;;15.47;98.56;98042.72;1662398;85;24752;-83
2022/06/24 02:06:06;;;;;;;;;;;;;;;15.56;98.98;98031.30;1669474;84;22002;-84
2022/06/24 02:08:32;;;;;;;;;;;;;;;15.62;99.33;98035.99;1667293;84;26760;-84
2022/06/24 02:13:43;;;;;;;;;;;;;;;15.91;99.92;98027.89;1663522;84;20263;-83
2022/06/24 02:16:10;;;;;;;;;;;;;;;15.92;99.95;98030.88;1664203;84;25384;-82
2022/06/24 02:18:36;;;;;;;;;;;;;;;15.87;99.94;98023.90;1667586;84;22557;-83
2022/06/24 02:21:05;;;;;;;;;;;;;;;15.80;99.96;98023.66;1662627;84;26664;-83
2022/06/24 02:23:32;;;;;;;;;;;;;;;15.63;99.87;98024.95;1665991;83;24403;-85
2022/06/24 02:26:00;;;;;;;;;;;;;;;15.42;99.97;98026.02;1672585;84;20501;-85
2022/06/24 02:28:25;;;;;;;;;;;;;;;15.15;99.99;98020.75;1668711;84;24784;-85
2022/06/24 02:30:53;;;;;;;;;;;;;;;14.97;100.00;98033.02;1670964;84;20208;-84
2022/06/24 02:33:19;;;;;;;;;;;;;;;14.80;100.00;98037.23;1668238;84;26039;-84
2022/06/24 02:35:46;;;;;;;;;;;;;;;14.61;100.00;98032.03;1670194;84;24155;-84
2022/06/24 02:38:12;;;;;;;;;;;;;;;14.50;100.00;98035.66;1670494;84;20264;-86
2022/06/24 02:40:47;;;;;;;;;;;;;;;14.47;100.00;98030.66;1668538;84;24859;-89
2022/06/24 02:43:16;;;;;;;;;;;;;;;14.41;100.00;98035.16;1667212;84;22072;-89
2022/06/24 02:45:42;;;;;;;;;;;;;;;14.42;100.00;98031.56;1659795;84;25986;-84
2022/06/24 02:48:09;;;;;;;;;;;;;;;14.39;100.00;98033.17;1635610;85;24508;-88
2022/06/24 02:50:38;;;;;;;;;;;;;;;14.46;100.00;98030.30;1670866;84;20303;-84
2022/06/24 02:53:04;;;;;;;;;;;;;;;14.63;100.00;98039.28;1672726;84;25589;-84
2022/06/24 02:55:30;;;;;;;;;;;;;;;14.75;100.00;98036.83;1665912;84;20638;-84
2022/06/24 02:57:56;;;;;;;;;;;;;;;14.75;100.00;98038.63;1670460;84;20950;-88
2022/06/24 03:00:22;;;;;;;;;;;;;;;14.84;100.00;98039.08;1670223;84;20260;-87
2022/06/24 03:02:48;;;;;;;;;;;;;;;14.86;100.00;98037.14;1668364;84;20767;-88
2022/06/24 03:05:14;;;;;;;;;;;;;;;14.82;100.00;98031.83;1669876;84;20334;-84
2022/06/24 03:07:40;;;;;;;;;;;;;;;14.99;100.00;98031.08;1662494;84;20423;-84
2022/06/24 03:10:06;;;;;;;;;;;;;;;15.01;100.00;98044.44;1668673;84;26030;-84
2022/06/24 03:12:35;;;;;;;;;;;;;;;15.10;100.00;98045.40;1670679;84;24503;-84
2022/06/24 03:15:07;;;;;;;;;;;;;;;15.16;100.00;98042.19;1670408;84;20181;-85
2022/06/24 03:17:33;;;;;;;;;;;;;;;15.21;100.00;98042.58;1666981;84;24677;-84
2022/06/24 03:19:59;;;;;;;;;;;;;;;15.02;100.00;98039.52;1674900;84;20322;-89
2022/06/24 03:22:26;;;;;;;;;;;;;;;14.90;100.00;98039.83;1662420;84;21058;-86
2022/06/24 03:24:52;;;;;;;;;;;;;;;14.98;100.00;98045.23;1668333;84;24487;-88
2022/06/24 03:27:20;;;;;;;;;;;;;;;15.15;100.00;98051.06;1669086;84;20275;-84
2022/06/24 03:29:47;;;;;;;;;;;;;;;15.26;100.00;98047.41;1669510;84;24823;-84
2022/06/24 03:32:34;;;;;;;;;;;;;;;15.48;100.00;98047.86;1728487;81;20480;-89
2022/06/24 03:35:01;;;;;;;;;;;;;;;15.69;100.00;98047.63;1729103;81;26007;-89
2022/06/24 03:37:28;;;;;;;;;;;;;;;15.70;100.00;98047.13;1728559;81;24413;-85
2022/06/24 03:39:54;;;;;;;;;;;;;;;15.82;100.00;98045.92;1732163;82;20492;-84
2022/06/24 03:42:20;;;;;;;;;;;;;;;16.15;100.00;98048.38;1733089;81;20372;-85
2022/06/24 03:44:47;;;;;;;;;;;;;;;16.47;100.00;98043.89;1733113;82;22043;-84
2022/06/24 03:47:14;;;;;;;;;;;;;;;16.83;100.00;98042.84;1733050;81;26244;-84
2022/06/24 03:49:40;;;;;;;;;;;;;;;17.20;100.00;98046.52;1733493;82;24477;-84
2022/06/24 03:52:06;;;;;;;;;;;;;;;17.48;100.00;98049.28;1729572;81;20474;-84
2022/06/24 03:54:35;;;;;;;;;;;;;;;17.75;100.00;98054.86;1731434;81;24380;-84
2022/06/24 03:57:01;;;;;;;;;;;;;;;18.03;100.00;98055.91;1726610;81;22053;-84
2022/06/24 03:59:27;;;;;;;;;;;;;;;18.29;100.00;98052.14;1730724;81;26192;-88
2022/06/24 04:01:54;;;;;;;;;;;;;;;18.53;100.00;98049.16;1733496;81;20260;-83
2022/06/24 04:04:20;;;;;;;;;;;;;;;18.74;100.00;98051.66;1730276;81;20248;-83
2022/06/24 04:06:46;;;;;;;;;;;;;;;18.83;100.00;98050.31;1731640;82;66350;-83
2022/06/24 04:09:12;;;;;;;;;;;;;;;18.92;100.00;98046.67;1731895;81;20342;-85
2022/06/24 04:11:41;;;;;;;;;;;;;;;18.91;100.00;98048.48;1734364;82;22008;-85
2022/06/24 04:14:07;;;;;;;;;;;;;;;18.98;100.00;98044.67;1729651;81;24539;-85
2022/06/24 04:16:33;;;;;;;;;;;;;;;19.10;100.00;98049.42;1731252;81;20244;-83
2022/06/24 04:18:59;;;;;;;;;;;;;;;19.41;100.00;98055.31;1730343;81;20558;-83
2022/06/24 04:21:25;;;;;;;;;;;;;;;19.72;100.00;98058.02;1731298;81;21133;-83
2022/06/24 04:23:51;;;;;;;;;;;;;;;19.99;100.00;98057.53;1731600;82;20928;-83
2022/06/24 04:26:18;;;;;;;;;;;;;;;20.28;100.00;98057.67;1729280;81;24376;-82
2022/06/24 04:28:45;;;;;;;;;;;;;;;20.51;100.00;98052.88;1729875;81;20611;-82
2022/06/24 04:31:12;;;;;;;;;;;;;;;20.75;100.00;98056.64;1708041;81;225357;-83
2022/06/24 04:33:38;;;;;;;;;;;;;;;20.89;100.00;98055.33;1709219;82;199809;-83
2022/06/24 04:36:05;;;;;;;;;;;;;;;21.06;100.00;98059.15;1725320;82;26581;-82
2022/06/24 04:38:31;;;;;;;;;;;;;;;21.20;100.00;98055.22;1709471;82;24412;-83
2022/06/24 04:40:57;;;;;;;;;;;;;;;21.27;100.00;98056.11;1714817;82;20255;-83
2022/06/24 04:43:24;;;;;;;;;;;;;;;21.36;100.00;98056.86;1719503;82;20857;-83
2022/06/24 04:45:50;;;;;;;;;;;;;;;21.37;100.00;98061.69;1717010;82;22120;-84
2022/06/24 04:48:15;;;;;;;;;;;;;;;21.34;100.00;98060.70;1725352;82;21019;-84
2022/06/24 04:50:41;;;;;;;;;;;;;;;21.22;100.00;98059.04;1714253;82;20831;-84
2022/06/24 04:53:07;;;;;;;;;;;;;;;21.13;100.00;98057.42;1716303;82;20522;-84
2022/06/24 04:55:33;;;;;;;;;;;;;;;21.12;100.00;98059.25;1715187;82;20827;-83
2022/06/24 04:57:59;;;;;;;;;;;;;;;21.02;100.00;98057.87;1724342;82;20299;-83
2022/06/24 05:00:25;;;;;;;;;;;;;;;20.96;99.80;98058.09;1716795;82;20901;-88
2022/06/24 05:02:51;;;;;;;;;;;;;;;20.75;99.44;98056.14;1722475;82;24336;-83
2022/06/24 05:05:17;;;;;;;;;;;;;;;20.77;99.43;98060.78;1724345;82;20806;-88
2022/06/24 05:07:43;;;;;;;;;;;;;;;20.87;99.60;98057.86;1717894;82;20347;-83
2022/06/24 05:10:09;;;;;;;;;;;;;;;20.89;99.60;98059.31;1720797;82;20270;-83
2022/06/24 05:12:35;;;;;;;;;;;;;;;20.92;99.58;98056.81;1718680;82;21039;-87
2022/06/24 05:15:01;;;;;;;;;;;;;;;20.88;99.55;98058.19;1728836;82;20253;-88
2022/06/24 05:17:27;;;;;;;;;;;;;;;20.60;99.00;98057.94;1728996;82;20278;-83
2022/06/24 05:19:53;;;;;;;;;;;;;;;20.38;98.79;98062.27;1719139;82;20253;-83
2022/06/24 05:22:19;;;;;;;;;;;;;;;20.18;98.42;98066.88;1722900;82;20222;-83
2022/06/24 05:24:45;;;;;;;;;;;;;;;20.04;98.38;98063.14;1722605;82;26140;-83
2022/06/24 05:27:11;;;;;;;;;;;;;;;19.96;98.39;98066.69;1718890;82;20238;-88
2022/06/24 05:29:37;;;;;;;;;;;;;;;19.91;98.62;98065.56;1724178;82;20248;-88
2022/06/24 05:32:03;;;;;;;;;;;;;;;19.86;98.75;98063.41;1725612;81;24841;-84
2022/06/24 05:34:30;;;;;;;;;;;;;;;19.86;99.13;98064.73;1735334;81;22085;-83
2022/06/24 05:36:56;;;;;;;;;;;;;;;19.86;99.45;98063.41;1735395;81;26078;-83
2022/06/24 05:39:22;;;;;;;;;;;;;;;19.85;99.52;98060.45;1735325;81;20270;-83
2022/06/24 05:41:48;;;;;;;;;;;;;;;19.92;99.93;98061.88;1733789;81;20862;-83
2022/06/24 05:44:16;;;;;;;;;;;;;;;19.98;100.00;98061.18;1733827;82;20323;-83
2022/06/24 05:46:41;;;;;;;;;;;;;;;20.07;100.00;98064.63;1731615;81;22721;-83
2022/06/24 05:49:07;;;;;;;;;;;;;;;20.16;100.00;98072.37;1728146;81;21698;-84
2022/06/24 05:51:36;;;;;;;;;;;;;;;20.20;100.00;98065.69;1732825;81;20277;-84
2022/06/24 05:56:47;;;;;;;;;;;;;;;20.33;100.00;98071.28;1731124;81;24966;-84
2022/06/24 05:59:13;;;;;;;;;;;;;;;20.42;100.00;98076.03;1732701;81;20278;-84
2022/06/24 06:01:39;;;;;;;;;;;;;;;20.49;100.00;98066.34;1732093;81;25937;-83
2022/06/24 06:04:05;;;;;;;;;;;;;;;20.56;100.00;98068.62;1732907;82;20810;-83
2022/06/24 06:06:31;;;;;;;;;;;;;;;20.63;100.00;98074.02;1734892;81;20270;-83
2022/06/24 06:08:57;;;;;;;;;;;;;;;20.69;100.00;98071.98;1735331;81;20239;-84
2022/06/24 06:11:24;;;;;;;;;;;;;;;20.80;100.00;98071.55;1735215;81;22147;-87
2022/06/24 06:13:51;;;;;;;;;;;;;;;20.87;100.00;98068.50;1733547;81;25990;-83
2022/06/24 06:16:18;;;;;;;;;;;;;;;20.91;100.00;98072.44;1733213;81;24571;-87
2022/06/24 06:18:45;;;;;;;;;;;;;;;20.99;100.00;98068.39;1731626;81;20177;-83
2022/06/24 06:21:12;;;;;;;;;;;;;;;21.05;100.00;98071.66;1734022;81;25446;-83
2022/06/24 06:23:39;;;;;;;;;;;;;;;21.12;100.00;98068.56;1733194;81;21964;-88
2022/06/24 06:26:06;;;;;;;;;;;;;;;21.21;100.00;98070.69;1733654;81;26713;-84
2022/06/24 06:28:32;;;;;;;;;;;;;;;21.31;100.00;98065.08;1731861;81;24390;-84
2022/06/24 06:30:58;;;;;;;;;;;;;;;21.44;100.00;98071.40;1733784;81;20133;-84
2022/06/24 06:33:25;;;;;;;;;;;;;;;21.61;100.00;98068.03;1748357;80;24731;-84
2022/06/24 06:35:50;;;;;;;;;;;;;;;21.68;99.79;98060.96;1748771;80;22239;-83
2022/06/24 06:38:22;;;;;;;;;;;;;;;21.75;99.09;98066.38;1749015;80;21021;-88
2022/06/24 06:40:48;;;;;;;;;;;;;;;21.78;97.95;98061.48;1748761;80;25086;-88
2022/06/24 06:43:14;;;;;;;;;;;;;;;21.81;96.36;98058.97;1748923;80;20305;-84
2022/06/24 06:45:40;;;;;;;;;;;;;;;21.89;95.36;98057.52;1748999;80;20210;-83
2022/06/24 06:48:06;;;;;;;;;;;;;;;21.93;94.60;98056.95;1749141;80;20207;-88
2022/06/24 06:50:32;;;;;;;;;;;;;;;21.96;93.70;98049.13;1748903;80;26023;-88
2022/06/24 06:53:04;;;;;;;;;;;;;;;22.10;93.19;98049.07;1747011;81;20332;-83
2022/06/24 06:55:30;;;;;;;;;;;;;;;22.24;92.39;98053.22;1748752;81;20282;-88
2022/06/24 06:57:56;;;;;;;;;;;;;;;22.27;91.61;98051.48;1749010;80;20249;-88
2022/06/24 07:00:22;;;;;;;;;;;;;;;22.35;91.09;98049.54;1748851;80;20234;-88
2022/06/24 07:02:47;;;;;;;;;;;;;;;22.40;90.32;98048.45;1749042;80;21127;-87
2022/06/24 07:05:13;;;;;;;;;;;;;;;22.57;89.68;98043.68;1748846;80;20352;-84
2022/06/24 07:07:40;;;;;;;;;;;;;;;22.65;88.40;98045.37;1748758;80;20269;-84
2022/06/24 07:10:06;;;;;;;;;;;;;;;22.67;87.29;98047.34;1748944;80;24905;-88
2022/06/24 07:12:32;;;;;;;;;;;;;;;22.77;86.60;98040.69;1750398;80;22062;-88
2022/06/24 07:14:58;;;;;;;;;;;;;;;22.83;85.96;98045.25;1748885;80;21026;-83
2022/06/24 07:17:24;;;;;;;;;;;;;;;22.91;85.56;98041.63;1748724;80;20833;-83
2022/06/24 07:19:50;;;;;;;;;;;;;;;22.98;84.86;98040.31;1748204;80;20281;-84
2022/06/24 07:22:15;;;;;;;;;;;;;;;22.99;83.74;98045.97;1748459;80;20226;-84
2022/06/24 07:24:41;;;;;;;;;;;;;;;23.04;82.78;98043.54;1748500;80;20238;-84
2022/06/24 07:27:08;;;;;;;;;;;;;;;23.18;82.17;98038.61;1748320;80;26267;-83
2022/06/24 07:29:35;;;;;;;;;;;;;;;23.23;81.12;98037.52;1747756;80;24426;-83
2022/06/24 07:32:01;;;;;;;;;;;;;;;23.37;80.23;98037.88;1743372;80;20265;-84
2022/06/24 07:34:30;;;;;;;;;;;;;;;23.51;79.35;98035.61;1734633;81;25058;-83
2022/06/24 07:36:57;;;;;;;;;;;;;;;23.54;78.46;98029.89;1734438;81;22138;-84
2022/06/24 07:39:28;;;;;;;;;;;;;;;23.62;77.46;98027.57;1734550;81;26679;-83
2022/06/24 07:41:54;;;;;;;;;;;;;;;23.74;76.63;98030.78;1737215;80;24513;-84
2022/06/24 07:44:20;;;;;;;;;;;;;;;23.86;75.88;98025.69;1735019;81;20352;-84
2022/06/24 07:46:47;;;;;;;;;;;;;;;23.98;75.34;98022.74;1733040;81;24937;-84
2022/06/24 07:49:13;;;;;;;;;;;;;;;24.03;74.37;98024.80;1734773;81;22160;-83
2022/06/24 07:51:39;;;;;;;;;;;;;;;24.09;73.29;98019.48;1734909;81;21074;-83
2022/06/24 07:54:08;;;;;;;;;;;;;;;24.17;72.53;98024.66;1734785;81;20868;-83
2022/06/24 07:59:22;;;;;;;;;;;;;;;24.16;70.43;98020.32;1734705;81;24933;-83
2022/06/24 08:01:49;;;;;;;;;;;;;;;24.23;69.60;98017.66;1738662;80;20564;-83
2022/06/24 08:04:15;;;;;;;;;;;;;;;24.32;69.19;98008.44;1734759;81;21189;-84
2022/06/24 08:06:46;;;;;;;;;;;;;;;24.39;68.69;98011.09;1734649;81;20871;-85
2022/06/24 08:09:13;;;;;;;;;;;;;;;24.45;67.82;98008.43;1734664;81;20192;-83
2022/06/24 08:11:39;;;;;;;;;;;;;;;24.45;67.02;98007.09;1734550;81;24828;-84
2022/06/24 08:14:05;;;;;;;;;;;;;;;24.50;66.49;98000.61;1734813;81;21945;-84
2022/06/24 08:16:32;;;;;;;;;;;;;;;24.55;65.95;97997.30;1734941;81;20974;-84
2022/06/24 08:18:58;;;;;;;;;;;;;;;24.60;65.18;97998.33;1734773;81;24495;-83
2022/06/24 08:21:32;;;;;;;;;;;;;;;24.72;64.94;97999.88;1734333;81;20283;-84
2022/06/24 08:23:58;;;;;;;;;;;;;;;24.82;64.61;97994.13;1735010;81;24735;-85
2022/06/24 08:26:24;;;;;;;;;;;;;;;24.99;64.16;97998.02;1733159;81;20860;-83
2022/06/24 08:28:50;;;;;;;;;;;;;;;25.05;63.44;97997.18;1733812;81;20859;-83
2022/06/24 08:31:16;;;;;;;;;;;;;;;25.19;63.02;97998.81;1734836;81;20273;-83
2022/06/24 08:33:42;;;;;;;;;;;;;;;25.24;62.32;97996.83;1733805;81;20315;-83
2022/06/24 08:36:08;;;;;;;;;;;;;;;25.22;61.34;97997.55;1735260;81;20843;-84
2022/06/24 08:38:34;;;;;;;;;;;;;;;25.23;60.81;97999.20;1735965;81;22168;-84
2022/06/24 08:41:02;;;;;;;;;;;;;;;25.37;60.51;97997.59;1736076;81;20988;-84
2022/06/24 08:43:32;;;;;;;;;;;;;;;25.55;60.47;97990.22;1735947;81;24426;-85
2022/06/24 08:45:58;;;;;;;;;;;;;;;25.62;60.06;97993.73;1735819;81;20621;-88
2022/06/24 08:48:28;;;;;;;;;;;;;;;25.61;59.21;97988.06;1734352;81;25353;-88
2022/06/24 08:50:54;;;;;;;;;;;;;;;25.56;58.28;97985.72;1735278;81;22693;-88
2022/06/24 08:53:22;;;;;;;;;;;;;;;25.60;58.03;97982.91;1733585;81;21173;-84
2022/06/24 08:55:50;;;;;;;;;;;;;;;25.68;57.84;97989.37;1732723;81;25250;-84
2022/06/24 08:58:17;;;;;;;;;;;;;;;25.80;57.71;97987.67;1734072;81;20584;-83
2022/06/24 09:00:43;;;;;;;;;;;;;;;25.94;57.49;97983.86;1736531;81;24735;-83
2022/06/24 09:03:09;;;;;;;;;;;;;;;25.98;56.91;97984.24;1735988;81;21012;-84
2022/06/24 09:05:36;;;;;;;;;;;;;;;25.94;56.14;97986.55;1736560;81;21762;-84
2022/06/24 09:08:07;;;;;;;;;;;;;;;26.01;55.75;97983.31;1735350;81;25252;-88
2022/06/24 09:10:33;;;;;;;;;;;;;;;26.16;55.82;97978.97;1736050;81;20223;-88
2022/06/24 09:12:59;;;;;;;;;;;;;;;26.30;55.86;97981.06;1735883;81;24769;-88
2022/06/24 09:15:26;;;;;;;;;;;;;;;26.45;56.15;97974.88;1735235;81;25248;-88
2022/06/24 09:17:52;;;;;;;;;;;;;;;26.54;56.11;97970.86;1735407;81;26002;-88
2022/06/24 09:20:21;;;;;;;;;;;;;;;26.52;55.28;97970.25;1735837;81;24454;-88
2022/06/24 09:22:47;;;;;;;;;;;;;;;26.50;54.80;97975.86;1735586;81;20591;-88
2022/06/24 09:25:13;;;;;;;;;;;;;;;26.55;54.13;97976.02;1734830;81;24909;-88
2022/06/24 09:27:43;;;;;;;;;;;;;;;26.70;53.87;97977.02;1735487;81;20540;-88
2022/06/24 09:30:10;;;;;;;;;;;;;;;26.73;53.49;97977.11;1733769;81;26033;-88
2022/06/24 09:32:52;;;;;;;2.02;1.10;;;;;;;26.71;53.13;97975.97;1732717;81;24399;-83
2022/06/24 09:35:20;;;;;;;;;;;;;;;26.68;52.44;97976.92;1749663;80;28066;-84
2022/06/24 09:37:47;;;;;;;;;;;;;;;26.60;51.42;97974.02;1748757;80;24774;-84
2022/06/24 09:40:17;;;;;;;;;;;;;;;26.54;50.66;97976.23;1748596;80;21981;-84
2022/06/24 09:42:45;;;;;;;;;;;;;;;26.51;50.21;97969.97;1748930;80;26144;-85
2022/06/24 09:45:11;;;;;;;;;;;;;;;26.53;50.12;97971.38;1749729;80;24512;-83
2022/06/24 09:47:40;;;;;;;;;;;;;;;26.63;50.10;97974.38;1747094;80;20859;-84
2022/06/24 09:50:06;;;;;;;;;;;;;;;26.65;49.69;97972.83;1748585;80;24777;-84
2022/06/24 09:52:32;;;;;;;;;;;;;;;26.76;49.67;97976.66;1746859;80;22243;-84
2022/06/24 09:55:00;;;;;;;;;;;;;;;26.75;48.91;97973.14;1748957;80;25956;-84
2022/06/24 09:57:38;;;;;;;1.35;1.20;;;;;;;26.77;48.46;97975.61;1743033;80;25364;-84
2022/06/24 10:02:58;;;;;;;2.30;1.20;;;;;;;27.01;48.21;97961.33;1743226;80;28148;-88
2022/06/24 10:05:34;;;;;;;1.72;1.15;;;;;;;27.06;47.94;97962.83;1742229;80;28089;-88
2022/06/24 10:08:05;;;;;;;2.22;1.30;;;;;;;27.00;47.01;97959.72;1742754;80;28089;-83
2022/06/24 10:10:33;;;;;;;;;;;;;;;26.99;46.69;97961.58;1748268;80;24439;-83
2022/06/24 10:13:02;;;;;;;2.10;1.30;;;;;;;27.18;46.67;97954.84;1745339;82;20220;-84
2022/06/24 10:15:29;;;;;;;3.53;1.50;;;;;;;27.29;46.51;97955.44;1744466;80;24740;-84
2022/06/24 10:17:56;;;;;;;1.53;1.10;;;;;;;27.44;46.20;97958.03;1744714;81;22654;-83
2022/06/24 10:20:23;;;;;;;1.43;1.17;;;;;;;27.40;45.59;97954.69;1744194;80;28108;-84
2022/06/24 10:22:57;;;;;;;2.50;1.10;;;;;;;27.30;45.07;97946.34;1742882;80;28082;-83
2022/06/24 10:25:38;;;;;;;;;;;;;;;27.22;44.72;97945.31;1746185;80;28094;-83
2022/06/24 10:28:05;;;;;;;2.15;1.27;;;;;;;27.22;44.65;97938.59;1744732;80;24963;-84
2022/06/24 10:30:43;;;;;;;1.25;1.15;;;;;;;27.17;44.17;97936.56;1745922;80;28062;-84
2022/06/24 10:33:21;;;;;;;3.30;1.35;;;;;;;27.21;44.11;97935.61;1739898;80;28077;-83
2022/06/24 10:36:04;;;;;;;3.30;1.30;;;;;;;27.21;43.85;97930.23;1728671;81;28042;-83
2022/06/24 10:38:42;;;;;;;2.77;1.30;;;;;;;27.41;44.18;97924.90;1729750;81;28199;-88
2022/06/24 10:41:11;;;;;;;2.67;1.22;;;;;;;27.61;44.02;97922.48;1728719;81;28154;-88
2022/06/24 10:43:40;;;;;;;2.72;1.27;;;;;;;27.54;43.55;97919.91;1728685;81;28002;-83
2022/06/24 10:46:18;;;;;;;2.87;1.15;;;;;;;27.54;43.33;97918.56;1727631;81;28058;-83
2022/06/24 10:48:52;;;;;;;3.83;1.40;;;;;;;27.48;42.94;97914.07;1727187;81;28135;-83
2022/06/24 10:51:20;;;;;;;1.80;1.17;;;;;;;27.42;42.71;97914.45;1728555;81;28172;-83
2022/06/24 10:54:09;;;;;;;1.40;1.30;;;;;;;27.38;42.41;97908.42;1728188;81;28089;-82
2022/06/24 10:56:41;;;;;;;1.42;1.32;;;;;;;27.36;42.13;97907.81;1728547;81;28137;-83
2022/06/24 10:59:07;;;;;;;1.22;1.07;;;;;;;27.39;42.07;97908.17;1728202;81;28262;-83
2022/06/24 11:01:33;;;;;;;2.45;1.40;;;;;;;27.45;42.04;97911.81;1706564;82;28172;-84
2022/06/24 11:04:03;;;;;;;1.62;1.37;;;;;;;27.54;42.18;97907.81;1727569;81;28126;-84
2022/06/24 11:06:29;;;;;;;1.77;1.20;;;;;;;27.71;42.37;97908.78;1726247;81;28085;-84
2022/06/24 11:09:06;;;;;;;1.75;1.45;;;;;;;27.77;42.24;97907.88;1728612;81;28095;-83
2022/06/24 11:11:34;;;;;;;1.37;1.20;;;;;;;27.80;42.05;97892.64;1728623;81;28092;-88
2022/06/24 11:14:24;;;;;;;3.85;1.42;;;;;;;27.77;41.75;97893.08;1728018;81;28144;-85
2022/06/24 11:16:53;;;;;;;2.02;1.20;;;;;;;27.79;41.79;97883.45;1727717;82;28523;-88
2022/06/24 11:19:19;;;;;;;4.87;1.30;;;;;;;28.03;41.82;97881.11;1728438;81;28184;-88
2022/06/24 11:21:49;;;;;;;1.87;1.40;;;;;;;28.06;41.58;97883.33;1728430;81;28140;-88
2022/06/24 11:24:19;;;;;;;1.25;1.15;;;;;;;28.16;41.73;97879.56;1728229;81;28149;-83
2022/06/24 11:27:06;;;;;;;2.05;1.17;;;;;;;28.18;41.54;97879.34;1728400;81;28107;-88
2022/06/24 11:29:56;;;;;;;1.92;1.20;;;;;;;28.12;41.35;97871.67;1728922;81;28068;-85
2022/06/24 11:32:22;;;;;;;2.10;1.10;;;;;;;28.11;41.22;97861.92;1728865;81;28077;-83
2022/06/24 11:34:53;;;;;;;1.35;1.25;;;;;;;28.10;41.03;97864.31;1730269;81;28174;-83
2022/06/24 11:37:24;;;;;;;2.10;1.42;;;;;;;28.04;40.82;97862.55;1729138;81;28092;-85
2022/06/24 11:39:58;;;;;;;;;;;;;;;28.04;40.88;97859.86;1733014;81;28085;-83
2022/06/24 11:42:24;;;;;;;1.95;1.20;;;;;;;28.10;41.03;97859.45;1728917;81;20207;-83
2022/06/24 11:44:51;;;;;;;2.37;1.10;;;;;;;28.29;41.39;97852.96;1729727;81;28124;-83
2022/06/24 11:47:29;;;;;;;3.05;1.30;;;;;;;28.53;41.76;97852.44;1726352;82;28156;-83
2022/06/24 11:49:55;;;;;;;2.12;1.10;;;;;;;28.56;41.97;97858.69;1728923;81;28085;-84
2022/06/24 11:52:22;;;;;;;3.15;1.30;;;;;;;28.41;42.32;97855.12;1728896;81;28074;-84
2022/06/24 11:54:48;;;;;;;1.65;1.30;;;;;;;28.29;42.13;97844.89;1729016;81;28139;-84
2022/06/24 11:57:14;;;;;;;3.30;1.30;;;;;;;28.22;41.65;97844.17;1735558;81;28085;-84
2022/06/24 11:59:42;;;;;;;1.57;1.27;;;;;;;28.23;41.69;97851.20;1728724;81;28119;-84
2022/06/24 12:02:13;;;;;;;2.00;1.30;;;;;;;28.20;41.32;97845.75;1728940;81;28049;-84
2022/06/24 12:04:59;;;;;;;2.15;1.12;;;;;;;28.20;41.17;97839.57;1704323;84;28054;-84
2022/06/24 12:07:25;;;;;;;2.05;1.20;;;;;;;28.18;41.01;97841.67;1702691;84;28075;-87
2022/06/24 12:09:52;;;;;;;1.98;1.37;;;;;;;28.25;41.34;97840.52;1705385;84;28079;-83
2022/06/24 12:12:18;;;;;;;3.33;1.10;;;;;;;28.36;41.50;97846.13;1705038;84;28048;-84
2022/06/24 12:14:48;;;;;;;1.95;1.25;;;;;;;28.39;41.70;97846.98;1705354;84;28069;-85
2022/06/24 12:17:16;;;;;;;2.08;1.37;;;;;;;28.36;41.39;97849.64;1704799;84;28165;-84
2022/06/24 12:20:04;;;;;;;1.57;1.47;;;;;;;28.56;41.75;97850.08;1705673;82;28058;-86
2022/06/24 12:22:30;;;;;;;2.77;1.40;;;;;;;28.65;41.33;97845.14;1704434;82;28154;-84
2022/06/24 12:25:08;;;;;;;1.27;1.10;;;;;;;28.74;41.16;97842.42;1705434;84;28106;-84
2022/06/24 12:27:36;;;;;;;2.10;1.45;;;;;;;28.76;41.03;97843.51;1704246;84;28113;-84
2022/06/24 12:30:04;;;;;;;1.70;1.50;;;;;;;28.90;41.29;97844.91;1705475;84;28105;-84
2022/06/24 12:32:48;;;;;;;2.10;1.40;;;;;;;28.94;41.24;97840.66;1705250;84;28024;-84
2022/06/24 12:35:14;;;;;;;1.95;1.67;;;;;;;28.93;41.18;97845.23;1704310;84;28135;-84
2022/06/24 12:37:53;;;;;;;3.10;1.60;;;;;;;28.93;40.97;97843.89;1679118;84;28130;-85
2022/06/24 12:40:23;;;;;;;1.55;1.22;;;;;;;28.99;40.94;97842.11;1706637;82;28016;-84
2022/06/24 12:43:07;;;;;;;2.02;1.32;;;;;;;28.92;40.97;97835.51;1702253;84;28079;-84
2022/06/24 12:45:37;;;;;;;2.65;1.50;;;;;;;28.96;40.95;97834.00;1704588;83;28086;-84